sensor_id;sensor_type;location;lat;lon;timestamp;P1;durP1;ratioP1;P2;durP2;ratioP2
55210;SDS011;41082;52.822;6.666;2024-02-21T00:01:39;20.23;;;8.25;;
55210;SDS011;41082;52.822;6.666;2024-02-21T00:04:05;19.45;;;7.80;;
55210;SDS011;41082;52.822;6.666;2024-02-21T00:06:31;22.23;;;8.45;;
55210;SDS011;41082;52.822;6.666;2024-02-21T00:08:57;19.75;;;8.20;;
55210;SDS011;41082;52.822;6.666;2024-02-21T00:11:23;16.20;;;7.55;;
55210;SDS011;41082;52.822;6.666;2024-02-21T00:13:49;18.88;;;6.93;;
55210;SDS011;41082;52.822;6.666;2024-02-21T00:16:16;14.23;;;6.80;;
55210;SDS011;41082;52.822;6.666;2024-02-21T00:18:42;14.10;;;6.65;;
55210;SDS011;41082;52.822;6.666;2024-02-21T00:21:08;13.75;;;6.22;;
55210;SDS011;41082;52.822;6.666;2024-02-21T00:23:34;20.38;;;7.03;;
55210;SDS011;41082;52.822;6.666;2024-02-21T00:26:00;13.07;;;5.88;;
55210;SDS011;41082;52.822;6.666;2024-02-21T00:28:25;17.90;;;6.20;;
55210;SDS011;41082;52.822;6.666;2024-02-21T00:30:51;15.52;;;6.00;;
55210;SDS011;41082;52.822;6.666;2024-02-21T00:33:18;15.52;;;5.50;;
55210;SDS011;41082;52.822;6.666;2024-02-21T00:35:44;14.32;;;5.35;;
55210;SDS011;41082;52.822;6.666;2024-02-21T00:38:09;14.55;;;5.65;;
55210;SDS011;41082;52.822;6.666;2024-02-21T00:40:35;19.42;;;5.20;;
55210;SDS011;41082;52.822;6.666;2024-02-21T00:43:01;14.65;;;5.50;;
55210;SDS011;41082;52.822;6.666;2024-02-21T00:45:27;10.45;;;4.53;;
55210;SDS011;41082;52.822;6.666;2024-02-21T00:47:52;14.50;;;5.00;;
55210;SDS011;41082;52.822;6.666;2024-02-21T00:50:18;18.13;;;4.80;;
55210;SDS011;41082;52.822;6.666;2024-02-21T00:52:43;16.92;;;4.55;;
55210;SDS011;41082;52.822;6.666;2024-02-21T00:55:09;15.63;;;5.18;;
55210;SDS011;41082;52.822;6.666;2024-02-21T00:57:35;17.33;;;4.63;;
55210;SDS011;41082;52.822;6.666;2024-02-21T01:00:02;13.93;;;4.50;;
55210;SDS011;41082;52.822;6.666;2024-02-21T01:02:28;14.73;;;4.70;;
55210;SDS011;41082;52.822;6.666;2024-02-21T01:04:56;14.45;;;3.95;;
55210;SDS011;41082;52.822;6.666;2024-02-21T01:07:25;17.42;;;3.70;;
55210;SDS011;41082;52.822;6.666;2024-02-21T01:09:50;15.88;;;4.60;;
55210;SDS011;41082;52.822;6.666;2024-02-21T01:12:16;17.33;;;5.32;;
55210;SDS011;41082;52.822;6.666;2024-02-21T01:14:42;16.17;;;5.00;;
55210;SDS011;41082;52.822;6.666;2024-02-21T01:17:08;14.40;;;4.40;;
55210;SDS011;41082;52.822;6.666;2024-02-21T01:19:33;16.05;;;4.13;;
55210;SDS011;41082;52.822;6.666;2024-02-21T01:21:59;14.48;;;4.90;;
55210;SDS011;41082;52.822;6.666;2024-02-21T01:24:25;12.77;;;4.30;;
55210;SDS011;41082;52.822;6.666;2024-02-21T01:26:50;13.45;;;4.15;;
55210;SDS011;41082;52.822;6.666;2024-02-21T01:29:16;16.10;;;4.60;;
55210;SDS011;41082;52.822;6.666;2024-02-21T01:31:41;17.80;;;4.00;;
55210;SDS011;41082;52.822;6.666;2024-02-21T01:34:07;14.13;;;4.13;;
55210;SDS011;41082;52.822;6.666;2024-02-21T01:36:33;20.65;;;4.80;;
55210;SDS011;41082;52.822;6.666;2024-02-21T01:38:58;16.95;;;4.22;;
55210;SDS011;41082;52.822;6.666;2024-02-21T01:41:24;15.38;;;4.00;;
55210;SDS011;41082;52.822;6.666;2024-02-21T01:43:50;14.98;;;4.22;;
55210;SDS011;41082;52.822;6.666;2024-02-21T01:46:15;15.63;;;4.60;;
55210;SDS011;41082;52.822;6.666;2024-02-21T01:48:41;16.90;;;4.88;;
55210;SDS011;41082;52.822;6.666;2024-02-21T01:51:07;18.90;;;4.50;;
55210;SDS011;41082;52.822;6.666;2024-02-21T01:53:34;27.70;;;5.45;;
55210;SDS011;41082;52.822;6.666;2024-02-21T01:56:02;16.63;;;4.03;;
55210;SDS011;41082;52.822;6.666;2024-02-21T01:58:30;19.70;;;4.80;;
55210;SDS011;41082;52.822;6.666;2024-02-21T02:00:58;18.60;;;5.15;;
55210;SDS011;41082;52.822;6.666;2024-02-21T02:03:24;19.80;;;5.28;;
55210;SDS011;41082;52.822;6.666;2024-02-21T02:05:50;19.73;;;5.38;;
55210;SDS011;41082;52.822;6.666;2024-02-21T02:08:19;18.80;;;4.88;;
55210;SDS011;41082;52.822;6.666;2024-02-21T02:10:47;22.83;;;5.73;;
55210;SDS011;41082;52.822;6.666;2024-02-21T02:13:13;22.70;;;6.00;;
55210;SDS011;41082;52.822;6.666;2024-02-21T02:15:42;23.27;;;5.60;;
55210;SDS011;41082;52.822;6.666;2024-02-21T02:18:12;21.90;;;6.32;;
55210;SDS011;41082;52.822;6.666;2024-02-21T02:20:39;25.95;;;6.85;;
55210;SDS011;41082;52.822;6.666;2024-02-21T02:23:09;20.27;;;7.50;;
55210;SDS011;41082;52.822;6.666;2024-02-21T02:28:08;23.08;;;7.03;;
55210;SDS011;41082;52.822;6.666;2024-02-21T02:30:34;28.70;;;7.32;;
55210;SDS011;41082;52.822;6.666;2024-02-21T02:33:01;28.55;;;8.45;;
55210;SDS011;41082;52.822;6.666;2024-02-21T02:35:27;21.77;;;8.50;;
55210;SDS011;41082;52.822;6.666;2024-02-21T02:37:53;24.08;;;8.00;;
55210;SDS011;41082;52.822;6.666;2024-02-21T02:40:19;31.02;;;7.95;;
55210;SDS011;41082;52.822;6.666;2024-02-21T02:42:44;27.55;;;8.30;;
55210;SDS011;41082;52.822;6.666;2024-02-21T02:45:10;22.08;;;7.93;;
55210;SDS011;41082;52.822;6.666;2024-02-21T02:47:36;21.27;;;7.72;;
55210;SDS011;41082;52.822;6.666;2024-02-21T02:50:02;21.80;;;8.32;;
55210;SDS011;41082;52.822;6.666;2024-02-21T02:52:28;23.40;;;8.45;;
55210;SDS011;41082;52.822;6.666;2024-02-21T02:54:53;21.63;;;8.40;;
55210;SDS011;41082;52.822;6.666;2024-02-21T02:57:21;21.90;;;7.72;;
55210;SDS011;41082;52.822;6.666;2024-02-21T02:59:47;21.08;;;7.63;;
55210;SDS011;41082;52.822;6.666;2024-02-21T03:02:13;32.90;;;8.85;;
55210;SDS011;41082;52.822;6.666;2024-02-21T03:04:39;21.27;;;9.20;;
55210;SDS011;41082;52.822;6.666;2024-02-21T03:07:05;26.42;;;9.50;;
55210;SDS011;41082;52.822;6.666;2024-02-21T03:09:31;21.75;;;8.88;;
55210;SDS011;41082;52.822;6.666;2024-02-21T03:11:57;26.10;;;9.48;;
55210;SDS011;41082;52.822;6.666;2024-02-21T03:14:27;30.93;;;8.83;;
55210;SDS011;41082;52.822;6.666;2024-02-21T03:16:53;30.00;;;9.25;;
55210;SDS011;41082;52.822;6.666;2024-02-21T03:19:19;25.98;;;8.30;;
55210;SDS011;41082;52.822;6.666;2024-02-21T03:21:45;26.42;;;9.20;;
55210;SDS011;41082;52.822;6.666;2024-02-21T03:24:10;32.65;;;9.82;;
55210;SDS011;41082;52.822;6.666;2024-02-21T03:26:36;28.20;;;9.25;;
55210;SDS011;41082;52.822;6.666;2024-02-21T03:29:02;30.80;;;9.70;;
55210;SDS011;41082;52.822;6.666;2024-02-21T03:31:28;24.52;;;8.57;;
55210;SDS011;41082;52.822;6.666;2024-02-21T03:33:54;36.15;;;10.00;;
55210;SDS011;41082;52.822;6.666;2024-02-21T03:36:20;27.67;;;8.70;;
55210;SDS011;41082;52.822;6.666;2024-02-21T03:38:45;32.35;;;9.40;;
55210;SDS011;41082;52.822;6.666;2024-02-21T03:41:11;25.33;;;9.07;;
55210;SDS011;41082;52.822;6.666;2024-02-21T03:43:37;25.30;;;9.23;;
55210;SDS011;41082;52.822;6.666;2024-02-21T03:46:04;35.15;;;10.05;;
55210;SDS011;41082;52.822;6.666;2024-02-21T03:48:29;30.02;;;9.80;;
55210;SDS011;41082;52.822;6.666;2024-02-21T03:50:55;28.98;;;10.40;;
55210;SDS011;41082;52.822;6.666;2024-02-21T03:53:21;26.27;;;8.52;;
55210;SDS011;41082;52.822;6.666;2024-02-21T03:55:46;32.55;;;9.73;;
55210;SDS011;41082;52.822;6.666;2024-02-21T03:58:12;29.70;;;9.75;;
55210;SDS011;41082;52.822;6.666;2024-02-21T04:00:37;28.58;;;8.50;;
55210;SDS011;41082;52.822;6.666;2024-02-21T04:03:04;26.10;;;9.35;;
55210;SDS011;41082;52.822;6.666;2024-02-21T04:05:29;29.25;;;9.48;;
55210;SDS011;41082;52.822;6.666;2024-02-21T04:07:55;32.45;;;10.48;;
55210;SDS011;41082;52.822;6.666;2024-02-21T04:10:21;32.90;;;10.27;;
55210;SDS011;41082;52.822;6.666;2024-02-21T04:12:46;31.98;;;10.65;;
55210;SDS011;41082;52.822;6.666;2024-02-21T04:15:15;36.70;;;9.73;;
55210;SDS011;41082;52.822;6.666;2024-02-21T04:17:44;28.33;;;9.18;;
55210;SDS011;41082;52.822;6.666;2024-02-21T04:20:13;31.63;;;9.65;;
55210;SDS011;41082;52.822;6.666;2024-02-21T04:22:42;39.75;;;9.90;;
55210;SDS011;41082;52.822;6.666;2024-02-21T04:25:09;34.92;;;10.70;;
55210;SDS011;41082;52.822;6.666;2024-02-21T04:27:34;29.23;;;9.57;;
55210;SDS011;41082;52.822;6.666;2024-02-21T04:30:00;25.85;;;9.38;;
55210;SDS011;41082;52.822;6.666;2024-02-21T04:32:26;28.83;;;9.32;;
55210;SDS011;41082;52.822;6.666;2024-02-21T04:34:52;29.90;;;10.25;;
55210;SDS011;41082;52.822;6.666;2024-02-21T04:37:18;29.55;;;10.57;;
55210;SDS011;41082;52.822;6.666;2024-02-21T04:39:44;37.88;;;9.65;;
55210;SDS011;41082;52.822;6.666;2024-02-21T04:42:09;34.35;;;9.65;;
55210;SDS011;41082;52.822;6.666;2024-02-21T04:44:35;35.97;;;9.48;;
55210;SDS011;41082;52.822;6.666;2024-02-21T04:47:01;40.38;;;10.23;;
55210;SDS011;41082;52.822;6.666;2024-02-21T04:49:28;33.72;;;10.05;;
55210;SDS011;41082;52.822;6.666;2024-02-21T04:51:54;34.67;;;10.27;;
55210;SDS011;41082;52.822;6.666;2024-02-21T04:54:20;29.05;;;8.98;;
55210;SDS011;41082;52.822;6.666;2024-02-21T04:56:45;41.25;;;9.70;;
55210;SDS011;41082;52.822;6.666;2024-02-21T04:59:11;32.78;;;9.98;;
55210;SDS011;41082;52.822;6.666;2024-02-21T05:01:37;40.22;;;10.93;;
55210;SDS011;41082;52.822;6.666;2024-02-21T05:04:02;34.95;;;9.98;;
55210;SDS011;41082;52.822;6.666;2024-02-21T05:06:28;32.53;;;9.77;;
55210;SDS011;41082;52.822;6.666;2024-02-21T05:08:54;48.85;;;11.10;;
55210;SDS011;41082;52.822;6.666;2024-02-21T05:11:20;38.97;;;9.82;;
55210;SDS011;41082;52.822;6.666;2024-02-21T05:13:46;40.60;;;10.60;;
55210;SDS011;41082;52.822;6.666;2024-02-21T05:16:12;38.17;;;10.75;;
55210;SDS011;41082;52.822;6.666;2024-02-21T05:18:38;31.10;;;9.95;;
55210;SDS011;41082;52.822;6.666;2024-02-21T05:21:05;37.47;;;10.32;;
55210;SDS011;41082;52.822;6.666;2024-02-21T05:23:30;38.05;;;11.15;;
55210;SDS011;41082;52.822;6.666;2024-02-21T05:25:56;41.03;;;10.05;;
55210;SDS011;41082;52.822;6.666;2024-02-21T05:28:21;34.30;;;10.05;;
55210;SDS011;41082;52.822;6.666;2024-02-21T05:30:47;38.13;;;10.43;;
55210;SDS011;41082;52.822;6.666;2024-02-21T05:33:12;31.17;;;9.35;;
55210;SDS011;41082;52.822;6.666;2024-02-21T05:35:46;38.95;;;9.85;;
55210;SDS011;41082;52.822;6.666;2024-02-21T05:38:14;29.80;;;8.65;;
55210;SDS011;41082;52.822;6.666;2024-02-21T05:40:40;36.83;;;9.82;;
55210;SDS011;41082;52.822;6.666;2024-02-21T05:43:09;32.22;;;9.05;;
55210;SDS011;41082;52.822;6.666;2024-02-21T05:45:35;33.13;;;9.60;;
55210;SDS011;41082;52.822;6.666;2024-02-21T05:48:01;31.27;;;9.23;;
55210;SDS011;41082;52.822;6.666;2024-02-21T05:50:27;30.17;;;8.32;;
55210;SDS011;41082;52.822;6.666;2024-02-21T05:52:56;31.92;;;9.55;;
55210;SDS011;41082;52.822;6.666;2024-02-21T05:55:22;35.33;;;8.38;;
55210;SDS011;41082;52.822;6.666;2024-02-21T05:57:48;29.25;;;8.38;;
55210;SDS011;41082;52.822;6.666;2024-02-21T06:00:14;27.55;;;8.70;;
55210;SDS011;41082;52.822;6.666;2024-02-21T06:02:40;30.75;;;7.85;;
55210;SDS011;41082;52.822;6.666;2024-02-21T06:05:07;24.55;;;7.93;;
55210;SDS011;41082;52.822;6.666;2024-02-21T06:07:33;34.40;;;8.98;;
55210;SDS011;41082;52.822;6.666;2024-02-21T06:09:59;25.73;;;7.88;;
55210;SDS011;41082;52.822;6.666;2024-02-21T06:12:27;33.40;;;8.85;;
55210;SDS011;41082;52.822;6.666;2024-02-21T06:14:52;28.67;;;8.35;;
55210;SDS011;41082;52.822;6.666;2024-02-21T06:17:18;26.33;;;8.32;;
55210;SDS011;41082;52.822;6.666;2024-02-21T06:19:43;29.98;;;8.80;;
55210;SDS011;41082;52.822;6.666;2024-02-21T06:22:10;35.10;;;8.60;;
55210;SDS011;41082;52.822;6.666;2024-02-21T06:24:36;25.98;;;8.52;;
55210;SDS011;41082;52.822;6.666;2024-02-21T06:27:02;30.98;;;8.13;;
55210;SDS011;41082;52.822;6.666;2024-02-21T06:29:28;33.60;;;8.52;;
55210;SDS011;41082;52.822;6.666;2024-02-21T06:31:54;27.52;;;8.98;;
55210;SDS011;41082;52.822;6.666;2024-02-21T06:34:19;26.00;;;9.18;;
55210;SDS011;41082;52.822;6.666;2024-02-21T06:36:45;25.35;;;9.65;;
55210;SDS011;41082;52.822;6.666;2024-02-21T06:39:11;29.17;;;10.35;;
55210;SDS011;41082;52.822;6.666;2024-02-21T06:41:37;32.95;;;10.70;;
55210;SDS011;41082;52.822;6.666;2024-02-21T06:44:03;30.45;;;11.23;;
55210;SDS011;41082;52.822;6.666;2024-02-21T06:46:29;25.90;;;10.95;;
55210;SDS011;41082;52.822;6.666;2024-02-21T06:48:55;29.35;;;11.25;;
55210;SDS011;41082;52.822;6.666;2024-02-21T06:51:21;26.63;;;11.98;;
55210;SDS011;41082;52.822;6.666;2024-02-21T06:53:47;29.40;;;12.63;;
55210;SDS011;41082;52.822;6.666;2024-02-21T06:56:13;32.13;;;13.63;;
55210;SDS011;41082;52.822;6.666;2024-02-21T06:58:39;29.48;;;12.98;;
55210;SDS011;41082;52.822;6.666;2024-02-21T07:01:05;28.65;;;13.18;;
55210;SDS011;41082;52.822;6.666;2024-02-21T07:03:30;24.25;;;13.23;;
55210;SDS011;41082;52.822;6.666;2024-02-21T07:05:56;35.90;;;14.07;;
55210;SDS011;41082;52.822;6.666;2024-02-21T07:08:21;34.55;;;13.57;;
55210;SDS011;41082;52.822;6.666;2024-02-21T07:10:47;28.30;;;14.32;;
55210;SDS011;41082;52.822;6.666;2024-02-21T07:13:13;26.15;;;13.70;;
55210;SDS011;41082;52.822;6.666;2024-02-21T07:15:40;28.38;;;13.80;;
55210;SDS011;41082;52.822;6.666;2024-02-21T07:18:06;28.13;;;13.88;;
55210;SDS011;41082;52.822;6.666;2024-02-21T07:20:32;33.00;;;14.57;;
55210;SDS011;41082;52.822;6.666;2024-02-21T07:22:58;38.25;;;13.95;;
55210;SDS011;41082;52.822;6.666;2024-02-21T07:25:24;30.25;;;15.35;;
55210;SDS011;41082;52.822;6.666;2024-02-21T07:27:50;30.73;;;14.48;;
55210;SDS011;41082;52.822;6.666;2024-02-21T07:30:16;28.05;;;14.45;;
55210;SDS011;41082;52.822;6.666;2024-02-21T07:32:41;33.47;;;14.48;;
55210;SDS011;41082;52.822;6.666;2024-02-21T07:35:07;30.33;;;13.88;;
55210;SDS011;41082;52.822;6.666;2024-02-21T07:37:37;32.00;;;15.63;;
55210;SDS011;41082;52.822;6.666;2024-02-21T07:40:04;30.17;;;14.55;;
55210;SDS011;41082;52.822;6.666;2024-02-21T07:42:31;31.55;;;15.50;;
55210;SDS011;41082;52.822;6.666;2024-02-21T07:44:56;25.55;;;14.32;;
55210;SDS011;41082;52.822;6.666;2024-02-21T07:47:22;32.50;;;14.98;;
55210;SDS011;41082;52.822;6.666;2024-02-21T07:49:48;35.75;;;15.20;;
55210;SDS011;41082;52.822;6.666;2024-02-21T07:52:14;32.33;;;15.23;;
55210;SDS011;41082;52.822;6.666;2024-02-21T07:54:40;26.27;;;14.63;;
55210;SDS011;41082;52.822;6.666;2024-02-21T07:57:07;23.55;;;13.93;;
55210;SDS011;41082;52.822;6.666;2024-02-21T07:59:32;26.67;;;13.80;;
55210;SDS011;41082;52.822;6.666;2024-02-21T08:01:58;36.45;;;15.57;;
55210;SDS011;41082;52.822;6.666;2024-02-21T08:04:24;31.45;;;13.93;;
55210;SDS011;41082;52.822;6.666;2024-02-21T08:06:53;26.15;;;15.18;;
55210;SDS011;41082;52.822;6.666;2024-02-21T08:09:20;22.52;;;15.32;;
55210;SDS011;41082;52.822;6.666;2024-02-21T08:11:46;35.38;;;16.00;;
55210;SDS011;41082;52.822;6.666;2024-02-21T08:14:12;31.83;;;17.15;;
55210;SDS011;41082;52.822;6.666;2024-02-21T08:16:40;28.00;;;16.10;;
55210;SDS011;41082;52.822;6.666;2024-02-21T08:19:05;31.13;;;16.90;;
55210;SDS011;41082;52.822;6.666;2024-02-21T08:21:31;27.95;;;16.75;;
55210;SDS011;41082;52.822;6.666;2024-02-21T08:23:56;27.88;;;17.48;;
55210;SDS011;41082;52.822;6.666;2024-02-21T08:26:22;31.80;;;17.58;;
55210;SDS011;41082;52.822;6.666;2024-02-21T08:28:48;29.80;;;16.98;;
55210;SDS011;41082;52.822;6.666;2024-02-21T08:31:20;27.50;;;17.55;;
55210;SDS011;41082;52.822;6.666;2024-02-21T08:33:45;28.58;;;17.02;;
55210;SDS011;41082;52.822;6.666;2024-02-21T08:36:18;27.67;;;17.45;;
55210;SDS011;41082;52.822;6.666;2024-02-21T08:38:47;26.85;;;17.23;;
55210;SDS011;41082;52.822;6.666;2024-02-21T08:41:12;27.58;;;17.75;;
55210;SDS011;41082;52.822;6.666;2024-02-21T08:43:39;28.73;;;17.40;;
55210;SDS011;41082;52.822;6.666;2024-02-21T08:46:05;27.50;;;17.45;;
55210;SDS011;41082;52.822;6.666;2024-02-21T08:48:30;28.17;;;16.95;;
55210;SDS011;41082;52.822;6.666;2024-02-21T08:50:56;28.75;;;17.20;;
55210;SDS011;41082;52.822;6.666;2024-02-21T08:53:22;28.02;;;17.58;;
55210;SDS011;41082;52.822;6.666;2024-02-21T08:55:47;26.85;;;17.80;;
55210;SDS011;41082;52.822;6.666;2024-02-21T08:58:13;26.98;;;18.40;;
55210;SDS011;41082;52.822;6.666;2024-02-21T09:00:39;28.20;;;17.58;;
55210;SDS011;41082;52.822;6.666;2024-02-21T09:03:05;27.58;;;17.67;;
55210;SDS011;41082;52.822;6.666;2024-02-21T09:05:31;29.55;;;17.98;;
55210;SDS011;41082;52.822;6.666;2024-02-21T09:07:56;32.33;;;17.83;;
55210;SDS011;41082;52.822;6.666;2024-02-21T09:10:22;30.83;;;17.90;;
55210;SDS011;41082;52.822;6.666;2024-02-21T09:12:48;31.65;;;17.10;;
55210;SDS011;41082;52.822;6.666;2024-02-21T09:15:13;28.40;;;17.00;;
55210;SDS011;41082;52.822;6.666;2024-02-21T09:17:39;31.85;;;18.15;;
55210;SDS011;41082;52.822;6.666;2024-02-21T09:20:05;29.98;;;17.50;;
55210;SDS011;41082;52.822;6.666;2024-02-21T09:22:31;31.95;;;17.58;;
55210;SDS011;41082;52.822;6.666;2024-02-21T09:24:59;24.58;;;17.10;;
55210;SDS011;41082;52.822;6.666;2024-02-21T09:27:25;27.10;;;18.13;;
55210;SDS011;41082;52.822;6.666;2024-02-21T09:29:51;25.88;;;17.45;;
55210;SDS011;41082;52.822;6.666;2024-02-21T09:32:20;30.15;;;18.45;;
55210;SDS011;41082;52.822;6.666;2024-02-21T09:34:45;34.05;;;18.20;;
55210;SDS011;41082;52.822;6.666;2024-02-21T09:37:11;30.95;;;18.48;;
55210;SDS011;41082;52.822;6.666;2024-02-21T09:39:37;30.35;;;18.02;;
55210;SDS011;41082;52.822;6.666;2024-02-21T09:42:05;22.80;;;17.02;;
55210;SDS011;41082;52.822;6.666;2024-02-21T09:44:38;31.58;;;18.10;;
55210;SDS011;41082;52.822;6.666;2024-02-21T09:47:09;27.38;;;17.25;;
55210;SDS011;41082;52.822;6.666;2024-02-21T09:49:38;30.60;;;18.60;;
55210;SDS011;41082;52.822;6.666;2024-02-21T09:52:06;25.20;;;16.48;;
55210;SDS011;41082;52.822;6.666;2024-02-21T09:54:35;32.63;;;18.73;;
55210;SDS011;41082;52.822;6.666;2024-02-21T09:57:01;30.17;;;18.30;;
55210;SDS011;41082;52.822;6.666;2024-02-21T09:59:28;30.98;;;16.45;;
55210;SDS011;41082;52.822;6.666;2024-02-21T10:01:56;25.23;;;15.15;;
55210;SDS011;41082;52.822;6.666;2024-02-21T10:04:23;21.58;;;14.90;;
55210;SDS011;41082;52.822;6.666;2024-02-21T10:06:48;26.10;;;15.77;;
55210;SDS011;41082;52.822;6.666;2024-02-21T10:09:21;20.83;;;14.68;;
55210;SDS011;41082;52.822;6.666;2024-02-21T10:11:48;26.85;;;14.10;;
55210;SDS011;41082;52.822;6.666;2024-02-21T10:14:15;21.67;;;12.95;;
55210;SDS011;41082;52.822;6.666;2024-02-21T10:16:41;26.73;;;13.75;;
55210;SDS011;41082;52.822;6.666;2024-02-21T10:19:15;20.67;;;12.73;;
55210;SDS011;41082;52.822;6.666;2024-02-21T10:21:44;22.95;;;12.40;;
55210;SDS011;41082;52.822;6.666;2024-02-21T10:24:26;24.00;;;12.55;;
55210;SDS011;41082;52.822;6.666;2024-02-21T10:27:05;19.58;;;11.27;;
55210;SDS011;41082;52.822;6.666;2024-02-21T10:29:35;18.55;;;11.60;;
55210;SDS011;41082;52.822;6.666;2024-02-21T10:32:08;20.67;;;10.68;;
55210;SDS011;41082;52.822;6.666;2024-02-21T10:34:36;17.35;;;11.07;;
55210;SDS011;41082;52.822;6.666;2024-02-21T10:37:06;18.48;;;10.90;;
55210;SDS011;41082;52.822;6.666;2024-02-21T10:39:39;18.48;;;11.25;;
55210;SDS011;41082;52.822;6.666;2024-02-21T10:42:06;17.00;;;10.77;;
55210;SDS011;41082;52.822;6.666;2024-02-21T10:44:33;17.77;;;10.32;;
55210;SDS011;41082;52.822;6.666;2024-02-21T10:47:03;15.63;;;9.75;;
55210;SDS011;41082;52.822;6.666;2024-02-21T10:49:41;17.00;;;9.50;;
55210;SDS011;41082;52.822;6.666;2024-02-21T10:55:03;15.70;;;8.63;;
55210;SDS011;41082;52.822;6.666;2024-02-21T10:57:32;14.95;;;8.85;;
55210;SDS011;41082;52.822;6.666;2024-02-21T10:59:59;16.48;;;8.63;;
55210;SDS011;41082;52.822;6.666;2024-02-21T11:02:26;15.98;;;8.63;;
55210;SDS011;41082;52.822;6.666;2024-02-21T11:04:55;20.42;;;9.00;;
55210;SDS011;41082;52.822;6.666;2024-02-21T11:07:22;17.02;;;9.30;;
55210;SDS011;41082;52.822;6.666;2024-02-21T11:09:52;15.98;;;8.63;;
55210;SDS011;41082;52.822;6.666;2024-02-21T11:12:22;14.93;;;8.23;;
55210;SDS011;41082;52.822;6.666;2024-02-21T11:14:48;20.00;;;9.13;;
55210;SDS011;41082;52.822;6.666;2024-02-21T11:17:20;15.75;;;8.30;;
55210;SDS011;41082;52.822;6.666;2024-02-21T11:19:47;15.52;;;9.32;;
55210;SDS011;41082;52.822;6.666;2024-02-21T11:22:16;12.85;;;7.30;;
55210;SDS011;41082;52.822;6.666;2024-02-21T11:24:43;17.25;;;8.60;;
55210;SDS011;41082;52.822;6.666;2024-02-21T11:27:12;19.02;;;9.43;;
55210;SDS011;41082;52.822;6.666;2024-02-21T11:29:45;12.98;;;7.90;;
55210;SDS011;41082;52.822;6.666;2024-02-21T11:32:15;13.95;;;8.00;;
55210;SDS011;41082;52.822;6.666;2024-02-21T11:37:44;13.27;;;7.23;;
55210;SDS011;41082;52.822;6.666;2024-02-21T11:40:11;16.40;;;8.05;;
55210;SDS011;41082;52.822;6.666;2024-02-21T11:42:37;14.43;;;7.30;;
55210;SDS011;41082;52.822;6.666;2024-02-21T11:45:03;16.90;;;7.80;;
55210;SDS011;41082;52.822;6.666;2024-02-21T11:47:29;14.80;;;8.23;;
55210;SDS011;41082;52.822;6.666;2024-02-21T11:49:55;13.80;;;8.32;;
55210;SDS011;41082;52.822;6.666;2024-02-21T11:52:21;14.60;;;7.78;;
55210;SDS011;41082;52.822;6.666;2024-02-21T11:54:49;13.30;;;7.45;;
55210;SDS011;41082;52.822;6.666;2024-02-21T11:57:16;14.13;;;7.95;;
55210;SDS011;41082;52.822;6.666;2024-02-21T11:59:44;10.10;;;6.63;;
55210;SDS011;41082;52.822;6.666;2024-02-21T12:02:11;12.98;;;7.00;;
55210;SDS011;41082;52.822;6.666;2024-02-21T12:04:38;10.27;;;6.43;;
55210;SDS011;41082;52.822;6.666;2024-02-21T12:07:04;10.10;;;6.15;;
55210;SDS011;41082;52.822;6.666;2024-02-21T12:09:30;10.40;;;6.28;;
55210;SDS011;41082;52.822;6.666;2024-02-21T12:12:02;11.20;;;6.15;;
55210;SDS011;41082;52.822;6.666;2024-02-21T12:14:29;11.80;;;6.00;;
55210;SDS011;41082;52.822;6.666;2024-02-21T12:16:55;9.93;;;5.63;;
55210;SDS011;41082;52.822;6.666;2024-02-21T12:19:21;10.18;;;5.90;;
55210;SDS011;41082;52.822;6.666;2024-02-21T12:21:47;11.02;;;6.10;;
55210;SDS011;41082;52.822;6.666;2024-02-21T12:24:21;8.45;;;5.35;;
55210;SDS011;41082;52.822;6.666;2024-02-21T12:26:50;7.78;;;5.00;;
55210;SDS011;41082;52.822;6.666;2024-02-21T12:29:17;9.60;;;5.15;;
55210;SDS011;41082;52.822;6.666;2024-02-21T12:31:43;8.82;;;4.97;;
55210;SDS011;41082;52.822;6.666;2024-02-21T12:34:10;9.13;;;4.85;;
55210;SDS011;41082;52.822;6.666;2024-02-21T12:36:36;9.63;;;4.53;;
55210;SDS011;41082;52.822;6.666;2024-02-21T12:39:11;6.10;;;4.25;;
55210;SDS011;41082;52.822;6.666;2024-02-21T12:41:37;5.75;;;4.20;;
55210;SDS011;41082;52.822;6.666;2024-02-21T12:44:06;7.22;;;4.45;;
55210;SDS011;41082;52.822;6.666;2024-02-21T12:46:35;6.07;;;4.30;;
55210;SDS011;41082;52.822;6.666;2024-02-21T12:49:01;5.25;;;3.42;;
55210;SDS011;41082;52.822;6.666;2024-02-21T12:51:31;6.40;;;3.38;;
55210;SDS011;41082;52.822;6.666;2024-02-21T12:53:56;5.70;;;3.15;;
55210;SDS011;41082;52.822;6.666;2024-02-21T12:56:23;4.30;;;3.05;;
55210;SDS011;41082;52.822;6.666;2024-02-21T12:58:49;6.88;;;2.70;;
55210;SDS011;41082;52.822;6.666;2024-02-21T13:01:16;4.60;;;3.00;;
55210;SDS011;41082;52.822;6.666;2024-02-21T13:03:41;5.20;;;3.15;;
55210;SDS011;41082;52.822;6.666;2024-02-21T13:06:07;4.50;;;2.85;;
55210;SDS011;41082;52.822;6.666;2024-02-21T13:08:35;7.18;;;4.10;;
55210;SDS011;41082;52.822;6.666;2024-02-21T13:11:02;4.05;;;2.95;;
55210;SDS011;41082;52.822;6.666;2024-02-21T13:13:28;6.65;;;3.65;;
55210;SDS011;41082;52.822;6.666;2024-02-21T13:15:53;5.72;;;3.95;;
55210;SDS011;41082;52.822;6.666;2024-02-21T13:18:19;4.75;;;3.63;;
55210;SDS011;41082;52.822;6.666;2024-02-21T13:20:44;5.47;;;3.72;;
55210;SDS011;41082;52.822;6.666;2024-02-21T13:23:10;7.90;;;4.10;;
55210;SDS011;41082;52.822;6.666;2024-02-21T13:25:35;8.63;;;4.90;;
55210;SDS011;41082;52.822;6.666;2024-02-21T13:28:01;6.90;;;4.40;;
55210;SDS011;41082;52.822;6.666;2024-02-21T13:30:28;8.05;;;4.40;;
55210;SDS011;41082;52.822;6.666;2024-02-21T13:32:54;5.57;;;3.70;;
55210;SDS011;41082;52.822;6.666;2024-02-21T13:35:19;6.05;;;3.83;;
55210;SDS011;41082;52.822;6.666;2024-02-21T13:37:45;7.32;;;3.88;;
55210;SDS011;41082;52.822;6.666;2024-02-21T13:40:11;7.43;;;3.30;;
55210;SDS011;41082;52.822;6.666;2024-02-21T13:42:40;6.80;;;3.35;;
55210;SDS011;41082;52.822;6.666;2024-02-21T13:45:06;5.38;;;3.25;;
55210;SDS011;41082;52.822;6.666;2024-02-21T13:47:32;5.78;;;3.20;;
55210;SDS011;41082;52.822;6.666;2024-02-21T13:49:58;6.65;;;3.60;;
55210;SDS011;41082;52.822;6.666;2024-02-21T13:52:24;8.38;;;3.35;;
55210;SDS011;41082;52.822;6.666;2024-02-21T13:54:51;6.25;;;3.67;;
55210;SDS011;41082;52.822;6.666;2024-02-21T13:57:17;8.35;;;3.65;;
55210;SDS011;41082;52.822;6.666;2024-02-21T13:59:43;7.68;;;4.60;;
55210;SDS011;41082;52.822;6.666;2024-02-21T14:02:08;9.88;;;4.50;;
55210;SDS011;41082;52.822;6.666;2024-02-21T14:04:34;7.45;;;4.15;;
55210;SDS011;41082;52.822;6.666;2024-02-21T14:07:00;6.82;;;3.97;;
55210;SDS011;41082;52.822;6.666;2024-02-21T14:09:26;7.85;;;4.03;;
55210;SDS011;41082;52.822;6.666;2024-02-21T14:11:54;7.20;;;3.65;;
55210;SDS011;41082;52.822;6.666;2024-02-21T14:14:21;8.18;;;4.20;;
55210;SDS011;41082;52.822;6.666;2024-02-21T14:16:47;7.65;;;3.80;;
55210;SDS011;41082;52.822;6.666;2024-02-21T14:19:15;9.45;;;4.53;;
55210;SDS011;41082;52.822;6.666;2024-02-21T14:21:40;7.35;;;4.40;;
55210;SDS011;41082;52.822;6.666;2024-02-21T14:24:06;14.48;;;4.65;;
55210;SDS011;41082;52.822;6.666;2024-02-21T14:26:32;7.30;;;4.65;;
55210;SDS011;41082;52.822;6.666;2024-02-21T14:28:58;9.48;;;4.13;;
55210;SDS011;41082;52.822;6.666;2024-02-21T14:31:24;7.05;;;3.92;;
55210;SDS011;41082;52.822;6.666;2024-02-21T14:33:50;10.88;;;4.25;;
55210;SDS011;41082;52.822;6.666;2024-02-21T14:36:16;10.90;;;4.63;;